sensor_id;sensor_type;location;lat;lon;timestamp;pressure;altitude;pressure_sealevel;temperature;humidity
34500;BME280;20745;50.882;6.962;2022-08-19T00:02:29;100667.13;;;21.01;80.12
34500;BME280;20745;50.882;6.962;2022-08-19T00:05:17;100603.69;;;20.69;79.10
34500;BME280;20745;50.882;6.962;2022-08-19T00:08:06;100632.47;;;20.83;80.13
34500;BME280;20745;50.882;6.962;2022-08-19T00:10:53;100668.34;;;21.10;79.24
34500;BME280;20745;50.882;6.962;2022-08-19T00:13:40;100642.66;;;20.99;79.09
34500;BME280;20745;50.882;6.962;2022-08-19T00:16:28;100652.84;;;21.04;79.04
34500;BME280;20745;50.882;6.962;2022-08-19T00:19:16;100674.81;;;21.20;78.82
34500;BME280;20745;50.882;6.962;2022-08-19T00:22:03;100620.59;;;20.78;79.49
34500;BME280;20745;50.882;6.962;2022-08-19T00:24:52;100626.31;;;20.76;78.87
34500;BME280;20745;50.882;6.962;2022-08-19T00:27:40;100661.34;;;20.86;79.50
34500;BME280;20745;50.882;6.962;2022-08-19T00:30:28;100605.63;;;20.52;80.18
34500;BME280;20745;50.882;6.962;2022-08-19T00:33:15;100621.31;;;20.40;80.90
34500;BME280;20745;50.882;6.962;2022-08-19T00:36:06;100663.75;;;20.49;82.38
34500;BME280;20745;50.882;6.962;2022-08-19T00:38:55;100643.50;;;20.39;82.27
34500;BME280;20745;50.882;6.962;2022-08-19T00:41:44;100626.38;;;20.32;82.33
34500;BME280;20745;50.882;6.962;2022-08-19T00:44:35;100650.41;;;20.41;82.20
34500;BME280;20745;50.882;6.962;2022-08-19T00:47:22;100603.13;;;20.06;84.08
34500;BME280;20745;50.882;6.962;2022-08-19T00:50:15;100677.56;;;20.71;82.83
34500;BME280;20745;50.882;6.962;2022-08-19T00:53:03;100612.31;;;20.28;81.75
34500;BME280;20745;50.882;6.962;2022-08-19T00:55:53;100678.13;;;20.56;82.90
34500;BME280;20745;50.882;6.962;2022-08-19T00:58:41;100616.94;;;20.11;83.76
34500;BME280;20745;50.882;6.962;2022-08-19T01:01:29;100680.09;;;20.44;84.75
34500;BME280;20745;50.882;6.962;2022-08-19T01:04:16;100683.44;;;20.46;83.10
34500;BME280;20745;50.882;6.962;2022-08-19T01:07:04;100644.16;;;20.29;81.96
34500;BME280;20745;50.882;6.962;2022-08-19T01:09:52;100642.00;;;20.31;83.57
34500;BME280;20745;50.882;6.962;2022-08-19T01:12:40;100637.06;;;20.17;83.19
34500;BME280;20745;50.882;6.962;2022-08-19T01:15:31;100693.72;;;20.39;83.54
34500;BME280;20745;50.882;6.962;2022-08-19T01:18:21;100642.47;;;20.00;85.70
34500;BME280;20745;50.882;6.962;2022-08-19T01:21:35;100629.66;;;19.89;85.68
34500;BME280;20745;50.882;6.962;2022-08-19T01:24:24;100615.44;;;19.92;84.94
34500;BME280;20745;50.882;6.962;2022-08-19T01:27:12;100621.09;;;20.02;84.01
34500;BME280;20745;50.882;6.962;2022-08-19T01:29:59;100627.91;;;20.11;83.78
34500;BME280;20745;50.882;6.962;2022-08-19T01:32:47;100635.22;;;20.22;82.88
34500;BME280;20745;50.882;6.962;2022-08-19T01:35:35;100631.81;;;20.15;82.12
34500;BME280;20745;50.882;6.962;2022-08-19T01:38:25;100619.69;;;20.11;82.39
34500;BME280;20745;50.882;6.962;2022-08-19T01:41:13;100611.34;;;20.06;83.40
34500;BME280;20745;50.882;6.962;2022-08-19T01:44:01;100660.81;;;20.39;83.54
34500;BME280;20745;50.882;6.962;2022-08-19T01:47:05;100616.94;;;20.11;82.47
34500;BME280;20745;50.882;6.962;2022-08-19T01:49:54;100608.59;;;20.06;82.86
34500;BME280;20745;50.882;6.962;2022-08-19T01:52:43;100635.41;;;20.16;83.38
34500;BME280;20745;50.882;6.962;2022-08-19T01:55:31;100592.75;;;19.80;85.10
34500;BME280;20745;50.882;6.962;2022-08-19T01:58:21;100660.19;;;20.21;84.68
34500;BME280;20745;50.882;6.962;2022-08-19T02:01:09;100663.75;;;20.21;84.81
34500;BME280;20745;50.882;6.962;2022-08-19T02:03:58;100631.88;;;19.92;84.55
34500;BME280;20745;50.882;6.962;2022-08-19T02:06:45;100633.13;;;19.85;84.52
34500;BME280;20745;50.882;6.962;2022-08-19T02:09:33;100631.09;;;19.80;84.67
34500;BME280;20745;50.882;6.962;2022-08-19T02:12:20;100599.66;;;19.71;84.13
34500;BME280;20745;50.882;6.962;2022-08-19T02:15:08;100665.81;;;20.14;84.56
34500;BME280;20745;50.882;6.962;2022-08-19T02:17:56;100593.09;;;19.72;84.05
34500;BME280;20745;50.882;6.962;2022-08-19T02:20:44;100649.78;;;19.95;85.91
34500;BME280;20745;50.882;6.962;2022-08-19T02:23:32;100606.13;;;19.65;85.51
34500;BME280;20745;50.882;6.962;2022-08-19T02:26:20;100586.72;;;19.55;85.64
34500;BME280;20745;50.882;6.962;2022-08-19T02:29:08;100665.50;;;19.99;85.04
34500;BME280;20745;50.882;6.962;2022-08-19T02:31:56;100623.16;;;19.67;86.29
34500;BME280;20745;50.882;6.962;2022-08-19T02:34:43;100583.53;;;19.47;86.62
34500;BME280;20745;50.882;6.962;2022-08-19T02:37:33;100631.22;;;19.74;85.23
34500;BME280;20745;50.882;6.962;2022-08-19T02:40:40;100616.88;;;19.55;86.62
34500;BME280;20745;50.882;6.962;2022-08-19T02:43:29;100678.25;;;19.94;86.45
34500;BME280;20745;50.882;6.962;2022-08-19T02:46:24;100646.63;;;19.75;86.61
34500;BME280;20745;50.882;6.962;2022-08-19T02:49:11;100646.97;;;19.67;86.81
34500;BME280;20745;50.882;6.962;2022-08-19T02:52:01;100677.59;;;19.75;88.53
34500;BME280;20745;50.882;6.962;2022-08-19T02:54:49;100623.47;;;19.31;88.96
34500;BME280;20745;50.882;6.962;2022-08-19T02:57:36;100649.06;;;19.37;89.02
34500;BME280;20745;50.882;6.962;2022-08-19T03:00:24;100648.59;;;19.28;90.43
34500;BME280;20745;50.882;6.962;2022-08-19T03:03:11;100634.19;;;19.21;89.92
34500;BME280;20745;50.882;6.962;2022-08-19T03:06:08;100673.63;;;19.43;90.38
34500;BME280;20745;50.882;6.962;2022-08-19T03:08:56;100624.09;;;19.10;90.07
34500;BME280;20745;50.882;6.962;2022-08-19T03:11:44;100633.56;;;19.19;92.59
34500;BME280;20745;50.882;6.962;2022-08-19T03:14:35;100657.75;;;19.33;91.71
34500;BME280;20745;50.882;6.962;2022-08-19T03:17:23;100627.53;;;19.17;93.60
34500;BME280;20745;50.882;6.962;2022-08-19T03:20:10;100641.22;;;19.17;93.55
34500;BME280;20745;50.882;6.962;2022-08-19T03:22:57;100641.56;;;19.09;93.23
34500;BME280;20745;50.882;6.962;2022-08-19T03:25:47;100647.78;;;19.04;93.52
34500;BME280;20745;50.882;6.962;2022-08-19T03:28:50;100654.66;;;19.18;94.11
34500;BME280;20745;50.882;6.962;2022-08-19T03:31:45;100640.03;;;19.13;93.24
34500;BME280;20745;50.882;6.962;2022-08-19T03:34:39;100663.25;;;19.33;90.19
34500;BME280;20745;50.882;6.962;2022-08-19T03:37:26;100656.31;;;19.19;91.73
34500;BME280;20745;50.882;6.962;2022-08-19T03:40:13;100661.72;;;19.26;91.77
34500;BME280;20745;50.882;6.962;2022-08-19T03:43:03;100698.97;;;19.50;90.00
34500;BME280;20745;50.882;6.962;2022-08-19T03:45:59;100645.03;;;19.16;91.03
34500;BME280;20745;50.882;6.962;2022-08-19T03:48:48;100701.34;;;19.58;90.44
34500;BME280;20745;50.882;6.962;2022-08-19T03:51:41;100644.06;;;19.10;89.85
34500;BME280;20745;50.882;6.962;2022-08-19T03:54:29;100701.94;;;19.49;92.09
34500;BME280;20745;50.882;6.962;2022-08-19T03:57:17;100707.91;;;19.57;90.39
34500;BME280;20745;50.882;6.962;2022-08-19T04:00:04;100667.66;;;19.11;91.19
34500;BME280;20745;50.882;6.962;2022-08-19T04:03:01;100669.19;;;19.07;91.38
34500;BME280;20745;50.882;6.962;2022-08-19T04:05:48;100681.44;;;19.05;92.86
34500;BME280;20745;50.882;6.962;2022-08-19T04:08:36;100672.50;;;18.98;93.17
34500;BME280;20745;50.882;6.962;2022-08-19T04:11:25;100672.88;;;19.01;93.49
34500;BME280;20745;50.882;6.962;2022-08-19T04:14:32;100714.34;;;19.28;93.22
34500;BME280;20745;50.882;6.962;2022-08-19T04:17:20;100670.72;;;19.03;92.81
34500;BME280;20745;50.882;6.962;2022-08-19T04:20:09;100693.72;;;19.14;93.46
34500;BME280;20745;50.882;6.962;2022-08-19T04:22:57;100703.59;;;19.15;92.20
34500;BME280;20745;50.882;6.962;2022-08-19T04:25:44;100673.94;;;19.00;92.54
34500;BME280;20745;50.882;6.962;2022-08-19T04:28:31;100704.06;;;19.23;89.29
34500;BME280;20745;50.882;6.962;2022-08-19T04:31:25;100723.72;;;19.44;90.82
34500;BME280;20745;50.882;6.962;2022-08-19T04:34:15;100725.06;;;19.41;91.05
34500;BME280;20745;50.882;6.962;2022-08-19T04:37:05;100720.06;;;19.38;90.43
34500;BME280;20745;50.882;6.962;2022-08-19T04:39:59;100703.16;;;19.29;90.14
34500;BME280;20745;50.882;6.962;2022-08-19T04:43:05;100702.28;;;19.41;90.12
34500;BME280;20745;50.882;6.962;2022-08-19T04:45:53;100704.78;;;19.42;89.80
34500;BME280;20745;50.882;6.962;2022-08-19T04:48:47;100694.34;;;19.39;89.86
34500;BME280;20745;50.882;6.962;2022-08-19T04:51:35;100688.38;;;19.42;89.72
34500;BME280;20745;50.882;6.962;2022-08-19T04:54:24;100701.00;;;19.43;89.98
34500;BME280;20745;50.882;6.962;2022-08-19T04:57:25;100704.09;;;19.35;91.04
34500;BME280;20745;50.882;6.962;2022-08-19T05:00:13;100728.50;;;19.48;90.63
34500;BME280;20745;50.882;6.962;2022-08-19T05:03:01;100721.38;;;19.36;90.79
34500;BME280;20745;50.882;6.962;2022-08-19T05:05:54;100748.88;;;19.52;90.96
34500;BME280;20745;50.882;6.962;2022-08-19T05:08:43;100704.56;;;19.32;90.89
34500;BME280;20745;50.882;6.962;2022-08-19T05:11:35;100727.94;;;19.46;91.24
34500;BME280;20745;50.882;6.962;2022-08-19T05:14:25;100761.50;;;19.76;91.11
34500;BME280;20745;50.882;6.962;2022-08-19T05:17:16;100765.75;;;19.84;89.97
34500;BME280;20745;50.882;6.962;2022-08-19T05:20:15;100747.09;;;19.69;91.56
34500;BME280;20745;50.882;6.962;2022-08-19T05:23:20;100728.50;;;19.60;91.44
34500;BME280;20745;50.882;6.962;2022-08-19T05:26:09;100711.56;;;19.63;91.08
34500;BME280;20745;50.882;6.962;2022-08-19T05:28:58;100710.22;;;19.88;89.68
34500;BME280;20745;50.882;6.962;2022-08-19T05:31:47;100752.25;;;20.17;90.31
34500;BME280;20745;50.882;6.962;2022-08-19T05:34:37;100741.72;;;20.25;90.55
34500;BME280;20745;50.882;6.962;2022-08-19T05:37:27;100742.72;;;20.19;91.34
34500;BME280;20745;50.882;6.962;2022-08-19T05:40:37;100746.16;;;20.26;90.11
34500;BME280;20745;50.882;6.962;2022-08-19T05:43:27;100777.97;;;20.55;89.26
34500;BME280;20745;50.882;6.962;2022-08-19T05:46:28;100701.94;;;20.11;89.04
34500;BME280;20745;50.882;6.962;2022-08-19T05:53:42;100603.50;;;19.70;88.28
34500;BME280;20745;50.882;6.962;2022-08-19T05:56:34;100740.88;;;20.53;88.10
34500;BME280;20745;50.882;6.962;2022-08-19T05:59:25;100755.06;;;20.61;87.62
34500;BME280;20745;50.882;6.962;2022-08-19T06:02:12;100729.91;;;20.53;86.80
34500;BME280;20745;50.882;6.962;2022-08-19T06:05:03;100753.09;;;20.73;86.96
34500;BME280;20745;50.882;6.962;2022-08-19T06:07:54;100732.59;;;20.64;86.46
34500;BME280;20745;50.882;6.962;2022-08-19T06:10:41;100707.72;;;20.54;86.40
34500;BME280;20745;50.882;6.962;2022-08-19T06:13:29;100716.13;;;20.64;86.25
34500;BME280;20745;50.882;6.962;2022-08-19T06:16:22;100758.72;;;20.95;85.97
34500;BME280;20745;50.882;6.962;2022-08-19T06:19:23;100699.19;;;20.67;85.33
34500;BME280;20745;50.882;6.962;2022-08-19T06:22:48;100656.38;;;20.38;85.37
34500;BME280;20745;50.882;6.962;2022-08-19T06:25:39;100716.97;;;20.81;85.10
34500;BME280;20745;50.882;6.962;2022-08-19T06:28:29;100706.34;;;20.85;85.27
34500;BME280;20745;50.882;6.962;2022-08-19T06:31:24;100756.56;;;21.13;85.22
34500;BME280;20745;50.882;6.962;2022-08-19T06:34:12;100723.94;;;21.00;84.99
34500;BME280;20745;50.882;6.962;2022-08-19T06:37:01;100741.75;;;21.14;85.06
34500;BME280;20745;50.882;6.962;2022-08-19T06:39:49;100766.81;;;21.34;85.13
34500;BME280;20745;50.882;6.962;2022-08-19T06:42:37;100745.81;;;21.28;84.41
34500;BME280;20745;50.882;6.962;2022-08-19T06:45:41;100743.81;;;21.40;84.71
34500;BME280;20745;50.882;6.962;2022-08-19T06:48:30;100740.31;;;21.45;84.43
34500;BME280;20745;50.882;6.962;2022-08-19T06:51:24;100702.09;;;21.27;83.53
34500;BME280;20745;50.882;6.962;2022-08-19T06:54:17;100712.34;;;21.31;83.70
34500;BME280;20745;50.882;6.962;2022-08-19T06:57:06;100745.47;;;21.58;83.50
34500;BME280;20745;50.882;6.962;2022-08-19T06:59:54;100723.59;;;21.46;83.45
34500;BME280;20745;50.882;6.962;2022-08-19T07:02:43;100717.84;;;21.48;83.05
34500;BME280;20745;50.882;6.962;2022-08-19T07:05:43;100759.84;;;21.82;82.71
34500;BME280;20745;50.882;6.962;2022-08-19T07:08:32;100732.28;;;21.77;82.41
34500;BME280;20745;50.882;6.962;2022-08-19T07:11:20;100720.44;;;21.76;82.25
34500;BME280;20745;50.882;6.962;2022-08-19T07:14:10;100769.00;;;22.09;82.14
34500;BME280;20745;50.882;6.962;2022-08-19T07:17:07;100763.59;;;22.14;81.36
34500;BME280;20745;50.882;6.962;2022-08-19T07:19:56;100726.41;;;21.90;81.60
34500;BME280;20745;50.882;6.962;2022-08-19T07:22:51;100731.78;;;22.01;81.29
34500;BME280;20745;50.882;6.962;2022-08-19T07:25:39;100764.00;;;22.27;80.80
34500;BME280;20745;50.882;6.962;2022-08-19T07:28:27;100762.44;;;22.31;80.38
34500;BME280;20745;50.882;6.962;2022-08-19T07:31:20;100807.03;;;22.55;80.42
34500;BME280;20745;50.882;6.962;2022-08-19T07:34:11;100792.72;;;22.53;79.71
34500;BME280;20745;50.882;6.962;2022-08-19T07:37:00;100759.22;;;22.39;79.48
34500;BME280;20745;50.882;6.962;2022-08-19T07:39:47;100788.22;;;22.47;79.31
34500;BME280;20745;50.882;6.962;2022-08-19T07:42:36;100796.56;;;22.52;78.52
34500;BME280;20745;50.882;6.962;2022-08-19T07:45:24;100811.53;;;22.61;78.72
34500;BME280;20745;50.882;6.962;2022-08-19T07:48:11;100776.75;;;22.33;77.84
34500;BME280;20745;50.882;6.962;2022-08-19T07:51:03;100822.41;;;22.51;78.49
34500;BME280;20745;50.882;6.962;2022-08-19T07:53:51;100810.09;;;22.37;78.79
34500;BME280;20745;50.882;6.962;2022-08-19T07:56:39;100811.78;;;22.38;78.41
34500;BME280;20745;50.882;6.962;2022-08-19T07:59:27;100783.75;;;22.19;78.96
34500;BME280;20745;50.882;6.962;2022-08-19T08:02:15;100802.41;;;22.39;79.04
34500;BME280;20745;50.882;6.962;2022-08-19T08:05:03;100810.16;;;22.42;78.09
34500;BME280;20745;50.882;6.962;2022-08-19T08:08:11;100791.28;;;22.29;78.80
34500;BME280;20745;50.882;6.962;2022-08-19T08:11:19;100840.78;;;22.67;78.70
34500;BME280;20745;50.882;6.962;2022-08-19T08:14:39;100823.66;;;22.60;79.06
34500;BME280;20745;50.882;6.962;2022-08-19T08:17:30;100843.66;;;22.77;78.50
34500;BME280;20745;50.882;6.962;2022-08-19T08:20:36;100827.41;;;22.75;78.37
34500;BME280;20745;50.882;6.962;2022-08-19T08:23:23;100833.59;;;22.87;77.98
34500;BME280;20745;50.882;6.962;2022-08-19T08:26:16;100804.25;;;22.76;77.29
34500;BME280;20745;50.882;6.962;2022-08-19T08:29:06;100801.84;;;22.80;77.67
34500;BME280;20745;50.882;6.962;2022-08-19T08:31:59;100832.91;;;23.02;77.59
34500;BME280;20745;50.882;6.962;2022-08-19T08:34:46;100807.50;;;22.95;76.35
34500;BME280;20745;50.882;6.962;2022-08-19T08:37:39;100826.09;;;23.09;75.83
34500;BME280;20745;50.882;6.962;2022-08-19T08:40:49;100852.75;;;23.25;75.58
34500;BME280;20745;50.882;6.962;2022-08-19T08:43:40;100843.09;;;23.23;76.15
34500;BME280;20745;50.882;6.962;2022-08-19T08:46:47;100843.97;;;23.28;75.77
34500;BME280;20745;50.882;6.962;2022-08-19T08:49:43;100850.69;;;23.42;75.73
34500;BME280;20745;50.882;6.962;2022-08-19T08:52:43;100845.50;;;23.46;75.30
34500;BME280;20745;50.882;6.962;2022-08-19T08:55:32;100836.06;;;23.42;75.13
34500;BME280;20745;50.882;6.962;2022-08-19T09:01:41;100825.19;;;23.57;73.48
34500;BME280;20745;50.882;6.962;2022-08-19T09:04:28;100802.78;;;23.48;73.92
34500;BME280;20745;50.882;6.962;2022-08-19T09:07:38;100810.94;;;23.70;72.93
34500;BME280;20745;50.882;6.962;2022-08-19T09:10:52;100796.63;;;23.78;72.87
34500;BME280;20745;50.882;6.962;2022-08-19T09:16:36;100815.03;;;23.99;71.40
34500;BME280;20745;50.882;6.962;2022-08-19T09:19:23;100793.16;;;23.92;70.84
34500;BME280;20745;50.882;6.962;2022-08-19T09:22:11;100788.69;;;23.86;69.53
34500;BME280;20745;50.882;6.962;2022-08-19T09:24:59;100838.28;;;24.18;70.13
34500;BME280;20745;50.882;6.962;2022-08-19T09:27:46;100818.38;;;24.11;68.57
34500;BME280;20745;50.882;6.962;2022-08-19T09:30:39;100810.09;;;24.06;68.31
34500;BME280;20745;50.882;6.962;2022-08-19T09:33:27;100790.31;;;23.82;68.93
34500;BME280;20745;50.882;6.962;2022-08-19T09:36:18;100831.13;;;24.22;69.11
34500;BME280;20745;50.882;6.962;2022-08-19T09:39:21;100826.78;;;24.31;68.78
34500;BME280;20745;50.882;6.962;2022-08-19T09:42:26;100772.00;;;24.08;68.52
34500;BME280;20745;50.882;6.962;2022-08-19T09:45:21;100831.84;;;24.49;69.03
34500;BME280;20745;50.882;6.962;2022-08-19T09:48:09;100804.69;;;24.31;67.78
34500;BME280;20745;50.882;6.962;2022-08-19T09:51:07;100807.50;;;24.41;67.97
34500;BME280;20745;50.882;6.962;2022-08-19T09:54:03;100806.38;;;24.37;66.83
34500;BME280;20745;50.882;6.962;2022-08-19T09:56:53;100787.84;;;24.33;67.10
34500;BME280;20745;50.882;6.962;2022-08-19T09:59:41;100795.38;;;24.42;66.65
34500;BME280;20745;50.882;6.962;2022-08-19T10:02:36;100796.94;;;24.28;65.66
34500;BME280;20745;50.882;6.962;2022-08-19T10:05:32;100794.97;;;24.24;65.80
34500;BME280;20745;50.882;6.962;2022-08-19T10:08:41;100827.09;;;24.40;65.19
34500;BME280;20745;50.882;6.962;2022-08-19T10:11:39;100809.66;;;24.29;64.52
34500;BME280;20745;50.882;6.962;2022-08-19T10:14:38;100807.13;;;24.23;62.97
34500;BME280;20745;50.882;6.962;2022-08-19T10:17:27;100811.22;;;24.15;63.34
34500;BME280;20745;50.882;6.962;2022-08-19T10:20:19;100794.13;;;24.13;64.97
34500;BME280;20745;50.882;6.962;2022-08-19T10:23:11;100792.28;;;24.34;64.75
34500;BME280;20745;50.882;6.962;2022-08-19T10:26:00;100787.38;;;24.51;65.15
34500;BME280;20745;50.882;6.962;2022-08-19T10:28:49;100825.38;;;24.90;63.53
34500;BME280;20745;50.882;6.962;2022-08-19T10:31:40;100811.25;;;24.87;62.79
34500;BME280;20745;50.882;6.962;2022-08-19T10:34:48;100798.81;;;24.84;62.39
34500;BME280;20745;50.882;6.962;2022-08-19T10:37:44;100794.41;;;24.83;62.49
34500;BME280;20745;50.882;6.962;2022-08-19T10:40:43;100764.19;;;24.52;61.57
34500;BME280;20745;50.882;6.962;2022-08-19T10:43:31;100805.47;;;24.83;62.23
34500;BME280;20745;50.882;6.962;2022-08-19T10:46:25;100814.06;;;25.02;61.16
34500;BME280;20745;50.882;6.962;2022-08-19T10:49:13;100802.72;;;25.03;61.52
34500;BME280;20745;50.882;6.962;2022-08-19T10:52:00;100744.38;;;24.90;62.19
34500;BME280;20745;50.882;6.962;2022-08-19T10:55:28;100778.44;;;25.30;60.88
34500;BME280;20745;50.882;6.962;2022-08-19T10:58:51;100724.78;;;25.01;60.00
34500;BME280;20745;50.882;6.962;2022-08-19T11:01:40;100784.53;;;25.52;60.42
34500;BME280;20745;50.882;6.962;2022-08-19T11:04:28;100741.66;;;25.45;59.98
34500;BME280;20745;50.882;6.962;2022-08-19T11:07:16;100803.56;;;25.79;60.26
34500;BME280;20745;50.882;6.962;2022-08-19T11:10:04;100792.81;;;25.72;58.84
34500;BME280;20745;50.882;6.962;2022-08-19T11:12:56;100777.28;;;25.86;58.46
34500;BME280;20745;50.882;6.962;2022-08-19T11:15:43;100727.19;;;25.83;58.86
34500;BME280;20745;50.882;6.962;2022-08-19T11:18:38;100796.53;;;26.32;57.29
34500;BME280;20745;50.882;6.962;2022-08-19T11:21:31;100737.41;;;25.92;56.70
34500;BME280;20745;50.882;6.962;2022-08-19T11:24:24;100781.63;;;26.23;58.09
34500;BME280;20745;50.882;6.962;2022-08-19T11:27:12;100738.84;;;25.70;56.27
34500;BME280;20745;50.882;6.962;2022-08-19T11:29:59;100743.03;;;25.52;57.66
34500;BME280;20745;50.882;6.962;2022-08-19T11:32:47;100748.25;;;25.69;57.93
34500;BME280;20745;50.882;6.962;2022-08-19T11:35:39;100758.22;;;25.75;57.90
34500;BME280;20745;50.882;6.962;2022-08-19T11:38:27;100743.28;;;25.66;57.65
34500;BME280;20745;50.882;6.962;2022-08-19T11:41:16;100773.13;;;25.84;57.22
34500;BME280;20745;50.882;6.962;2022-08-19T11:44:05;100740.75;;;25.74;56.92
34500;BME280;20745;50.882;6.962;2022-08-19T11:46:54;100751.81;;;25.99;56.88
34500;BME280;20745;50.882;6.962;2022-08-19T11:49:42;100761.13;;;26.24;56.14
34500;BME280;20745;50.882;6.962;2022-08-19T11:52:29;100768.81;;;26.32;55.69
34500;BME280;20745;50.882;6.962;2022-08-19T11:55:17;100747.25;;;26.29;55.24
34500;BME280;20745;50.882;6.962;2022-08-19T11:58:04;100726.81;;;26.20;55.76
34500;BME280;20745;50.882;6.962;2022-08-19T12:01:06;100735.06;;;26.30;54.53
34500;BME280;20745;50.882;6.962;2022-08-19T12:03:55;100767.59;;;26.58;55.17
34500;BME280;20745;50.882;6.962;2022-08-19T12:06:43;100744.41;;;26.39;54.99
34500;BME280;20745;50.882;6.962;2022-08-19T12:09:31;100735.88;;;26.35;54.61
34500;BME280;20745;50.882;6.962;2022-08-19T12:12:19;100713.53;;;26.12;54.40
34500;BME280;20745;50.882;6.962;2022-08-19T12:15:07;100755.34;;;26.10;54.39
34500;BME280;20745;50.882;6.962;2022-08-19T12:17:56;100770.63;;;26.02;53.93
34500;BME280;20745;50.882;6.962;2022-08-19T12:20:44;100740.47;;;25.86;55.11
34500;BME280;20745;50.882;6.962;2022-08-19T12:23:32;100734.66;;;25.92;55.04
34500;BME280;20745;50.882;6.962;2022-08-19T12:26:20;100776.56;;;26.40;54.38
34500;BME280;20745;50.882;6.962;2022-08-19T12:29:08;100720.47;;;26.09;53.82
34500;BME280;20745;50.882;6.962;2022-08-19T12:31:57;100757.97;;;26.40;53.29
34500;BME280;20745;50.882;6.962;2022-08-19T12:34:51;100732.09;;;26.11;51.47
34500;BME280;20745;50.882;6.962;2022-08-19T12:37:39;100735.69;;;26.12;52.07
34500;BME280;20745;50.882;6.962;2022-08-19T12:40:46;100725.78;;;26.06;51.91
34500;BME280;20745;50.882;6.962;2022-08-19T12:43:34;100777.38;;;26.40;52.10
34500;BME280;20745;50.882;6.962;2022-08-19T12:46:24;100719.06;;;26.12;52.54
34500;BME280;20745;50.882;6.962;2022-08-19T12:49:12;100735.31;;;26.38;52.15
34500;BME280;20745;50.882;6.962;2022-08-19T12:52:19;100744.03;;;26.60;51.67
34500;BME280;20745;50.882;6.962;2022-08-19T12:55:10;100746.47;;;26.72;50.66
34500;BME280;20745;50.882;6.962;2022-08-19T12:57:58;100730.94;;;26.76;51.16
34500;BME280;20745;50.882;6.962;2022-08-19T13:00:49;100722.75;;;26.56;52.08
34500;BME280;20745;50.882;6.962;2022-08-19T13:03:37;100709.59;;;26.28;52.67
34500;BME280;20745;50.882;6.962;2022-08-19T13:06:28;100717.28;;;26.41;53.54
34500;BME280;20745;50.882;6.962;2022-08-19T13:09:15;100726.03;;;26.58;53.88
34500;BME280;20745;50.882;6.962;2022-08-19T13:12:03;100743.13;;;26.75;52.25
34500;BME280;20745;50.882;6.962;2022-08-19T13:14:55;100709.47;;;26.53;52.48
34500;BME280;20745;50.882;6.962;2022-08-19T13:17:42;100718.19;;;26.75;51.03
34500;BME280;20745;50.882;6.962;2022-08-19T13:20:30;100719.88;;;26.76;49.91
34500;BME280;20745;50.882;6.962;2022-08-19T13:23:17;100709.06;;;26.74;50.65
34500;BME280;20745;50.882;6.962;2022-08-19T13:26:06;100703.31;;;26.66;49.91
34500;BME280;20745;50.882;6.962;2022-08-19T13:28:53;100740.69;;;26.68;50.01
34500;BME280;20745;50.882;6.962;2022-08-19T13:31:59;100709.19;;;26.49;49.90
34500;BME280;20745;50.882;6.962;2022-08-19T13:35:06;100721.34;;;26.58;50.03
34500;BME280;20745;50.882;6.962;2022-08-19T13:37:53;100688.94;;;26.54;50.30
34500;BME280;20745;50.882;6.962;2022-08-19T13:40:41;100692.25;;;26.61;50.00
34500;BME280;20745;50.882;6.962;2022-08-19T13:43:28;100677.28;;;26.57;49.95
34500;BME280;20745;50.882;6.962;2022-08-19T13:46:16;100709.84;;;26.80;49.48
34500;BME280;20745;50.882;6.962;2022-08-19T13:49:03;100698.75;;;26.80;49.07
34500;BME280;20745;50.882;6.962;2022-08-19T13:51:51;100675.66;;;26.89;49.11
34500;BME280;20745;50.882;6.962;2022-08-19T13:54:38;100719.19;;;27.27;48.88
34500;BME280;20745;50.882;6.962;2022-08-19T13:57:25;100689.03;;;27.16;46.78
34500;BME280;20745;50.882;6.962;2022-08-19T14:00:16;100691.47;;;27.22;47.92
34500;BME280;20745;50.882;6.962;2022-08-19T14:03:07;100712.63;;;27.47;48.07
34500;BME280;20745;50.882;6.962;2022-08-19T14:05:55;100653.97;;;27.30;47.23
34500;BME280;20745;50.882;6.962;2022-08-19T14:08:43;100693.84;;;27.39;46.19
34500;BME280;20745;50.882;6.962;2022-08-19T14:11:32;100677.88;;;27.26;46.87
34500;BME280;20745;50.882;6.962;2022-08-19T14:14:20;100685.00;;;27.32;47.06
34500;BME280;20745;50.882;6.962;2022-08-19T14:17:07;100671.09;;;27.37;46.47
34500;BME280;20745;50.882;6.962;2022-08-19T14:20:00;100660.41;;;27.25;47.00
34500;BME280;20745;50.882;6.962;2022-08-19T14:22:57;100714.41;;;27.61;47.05
34500;BME280;20745;50.882;6.962;2022-08-19T14:25:44;100678.06;;;27.34;47.02
34500;BME280;20745;50.882;6.962;2022-08-19T14:28:33;100675.09;;;27.26;46.44
34500;BME280;20745;50.882;6.962;2022-08-19T14:31:21;100686.72;;;27.28;47.00
34500;BME280;20745;50.882;6.962;2022-08-19T14:34:16;100695.53;;;27.35;46.62
34500;BME280;20745;50.882;6.962;2022-08-19T14:37:03;100692.41;;;27.13;46.89
34500;BME280;20745;50.882;6.962;2022-08-19T14:39:51;100725.53;;;27.33;47.36
34500;BME280;20745;50.882;6.962;2022-08-19T14:42:38;100703.38;;;27.28;48.13
34500;BME280;20745;50.882;6.962;2022-08-19T14:45:27;100686.13;;;27.31;48.33
34500;BME280;20745;50.882;6.962;2022-08-19T14:48:15;100687.50;;;27.33;47.37
34500;BME280;20745;50.882;6.962;2022-08-19T14:51:06;100712.66;;;27.42;47.19
34500;BME280;20745;50.882;6.962;2022-08-19T14:53:53;100701.69;;;27.55;46.66
34500;BME280;20745;50.882;6.962;2022-08-19T14:56:41;100698.88;;;27.60;45.53
34500;BME280;20745;50.882;6.962;2022-08-19T14:59:28;100686.66;;;27.61;45.32
34500;BME280;20745;50.882;6.962;2022-08-19T15:02:15;100679.97;;;27.62;44.85
34500;BME280;20745;50.882;6.962;2022-08-19T15:05:21;100694.63;;;27.68;45.37
34500;BME280;20745;50.882;6.962;2022-08-19T15:16:35;100632.75;;;27.44;44.59